Terminal Aerodrome Forecast
Issued by NWS

Home | Current Version | Previous Version | Text Only | Print | Product List | Glossary On
Versions: 1 2 3 4 5 6 7 8 9 10 11 12 13 14 15 16 17 18 19
000
FTUS43 KTOP 210500
TAFMHK
TAF
KMHK 210520Z 2106/2206 27003KT P6SM FEW100
     FM210900 29003KT P6SM BKN100
     FM211900 25010G17KT P6SM FEW090=

USA.gov is the U.S. government's official web portal to all federal, state and local government web resources and services.